Terminal Aerodrome Forecast
Issued by NWS Sterling, VA

Home | Current Version | Previous Version | Text Only | Print | Product List | Glossary On
Versions: 1 2 3 4 5 6 7 8 9 10 11 12 13 14 15 16 17
000
FTUS41 KLWX 301127
TAFMRB
TAF
KMRB 301127Z 3012/0112 03010KT 3SM -RA BR BKN007 OVC014
     FM301500 05009KT P6SM OVC008
     FM010000 05008KT 5SM -SHRA OVC008=

USA.gov is the U.S. government's official web portal to all federal, state and local government web resources and services.